Time;durP1;ratioP1;P1;durP2;ratioP2;P2;SDS_P1;SDS_P2;PMS_P1;PMS_P2;Temp;Humidity;BMP_temperature;BMP_pressure;BME280_temperature;BME280_humidity;BME280_pressure;Samples;Min_cycle;Max_cycle;Signal;HPM_P1;HPM_P2
2023/10/28 00:00:54;;;;;;;2.83;0.80;;;19.20;52.80;;;;;;5033548;28;20508;-83
2023/10/28 00:03:21;;;;;;;2.65;0.90;;;19.30;52.20;;;;;;5032675;28;20025;-85
2023/10/28 00:05:49;;;;;;;2.58;0.75;;;19.30;51.90;;;;;;5033345;28;20060;-85
2023/10/28 00:08:17;;;;;;;2.35;0.93;;;19.40;51.60;;;;;;5033273;28;20017;-83
2023/10/28 00:10:48;;;;;;;1.65;0.57;;;19.40;51.90;;;;;;5033479;28;20483;-84
2023/10/28 00:13:15;;;;;;;3.85;0.82;;;19.40;48.70;;;;;;5032944;28;20033;-82
2023/10/28 00:15:43;;;;;;;1.67;0.77;;;19.50;50.90;;;;;;5033289;28;20025;-86
2023/10/28 00:18:10;;;;;;;5.38;1.05;;;19.50;51.00;;;;;;5033152;28;20108;-83
2023/10/28 00:20:38;;;;;;;2.15;0.90;;;19.50;50.50;;;;;;5033036;28;20499;-84
2023/10/28 00:23:06;;;;;;;2.28;0.50;;;19.60;50.10;;;;;;5033134;28;20044;-84
2023/10/28 00:25:34;;;;;;;5.60;0.70;;;19.60;48.50;;;;;;5033133;28;20464;-85
2023/10/28 00:28:01;;;;;;;1.35;0.68;;;19.70;49.40;;;;;;5033090;28;20477;-85
2023/10/28 00:30:29;;;;;;;2.17;0.70;;;19.70;49.60;;;;;;5033290;28;20096;-85
2023/10/28 00:32:58;;;;;;;2.50;1.33;;;19.70;49.10;;;;;;5033100;28;20025;-82
2023/10/28 00:35:29;;;;;;;2.13;0.60;;;19.80;49.80;;;;;;5032576;28;20025;-84
2023/10/28 00:37:57;;;;;;;5.47;1.52;;;19.80;49.00;;;;;;5033437;28;20025;-83
2023/10/28 00:40:31;;;;;;;4.35;1.10;;;19.80;49.10;;;;;;5032827;28;20049;-84
2023/10/28 00:43:01;;;;;;;2.65;0.77;;;19.90;49.10;;;;;;5033085;28;20100;-84
2023/10/28 00:45:31;;;;;;;3.53;0.80;;;19.90;48.80;;;;;;5033149;28;20070;-85
2023/10/28 00:47:58;;;;;;;2.80;0.80;;;20.00;47.80;;;;;;5032921;28;20041;-84
2023/10/28 00:50:29;;;;;;;2.55;0.80;;;20.00;47.60;;;;;;5032990;28;20380;-85
2023/10/28 00:52:59;;;;;;;1.17;0.60;;;20.00;47.50;;;;;;5034942;28;20017;-84
2023/10/28 00:55:30;;;;;;;3.03;0.63;;;20.00;47.90;;;;;;5034057;28;20084;-84
2023/10/28 00:57:58;;;;;;;4.53;0.75;;;20.10;48.10;;;;;;5032818;28;20496;-76
2023/10/28 01:00:25;;;;;;;2.53;1.00;;;20.10;47.60;;;;;;5032540;28;20057;-81
2023/10/28 01:02:53;;;;;;;3.13;1.05;;;20.20;48.10;;;;;;5032627;28;20021;-83
2023/10/28 01:05:22;;;;;;;2.35;1.10;;;20.20;47.90;;;;;;5032334;28;20026;-80
2023/10/28 01:07:50;;;;;;;1.83;0.65;;;20.30;47.60;;;;;;5032637;28;20032;-78
2023/10/28 01:10:35;;;;;;;4.18;0.80;;;20.30;48.00;;;;;;5032537;28;20021;-77
2023/10/28 01:13:06;;;;;;;3.15;0.77;;;20.40;48.00;;;;;;5032313;28;20468;-80
2023/10/28 01:15:33;;;;;;;3.10;0.70;;;20.40;46.40;;;;;;5035562;28;20140;-80
2023/10/28 01:18:00;;;;;;;5.35;1.00;;;20.50;46.50;;;;;;5036401;28;20041;-79
2023/10/28 01:20:28;;;;;;;2.72;0.95;;;20.50;45.20;;;;;;5036303;28;20083;-81
2023/10/28 01:22:55;;;;;;;2.50;0.95;;;20.50;45.50;;;;;;5036200;28;20021;-81
2023/10/28 01:25:23;;;;;;;3.00;1.15;;;20.40;45.50;;;;;;5035783;28;20087;-77
2023/10/28 01:27:50;;;;;;;4.57;1.15;;;20.50;46.20;;;;;;5045651;28;20013;-80
2023/10/28 01:30:17;;;;;;;2.20;0.98;;;20.60;46.50;;;;;;5056100;28;20111;-81
2023/10/28 01:32:45;;;;;;;2.17;0.90;;;20.70;46.90;;;;;;5055427;28;20047;-78
2023/10/28 01:35:13;;;;;;;4.65;0.80;;;20.70;47.50;;;;;;5054756;28;20434;-80
2023/10/28 01:37:40;;;;;;;2.97;1.00;;;20.80;46.10;;;;;;5055373;28;20017;-80
2023/10/28 01:40:14;;;;;;;1.20;0.50;;;20.80;46.40;;;;;;5055039;28;20037;-80
2023/10/28 01:42:44;;;;;;;2.75;0.60;;;20.80;46.50;;;;;;5053986;28;20491;-81
2023/10/28 01:45:18;;;;;;;3.97;0.80;;;20.80;46.10;;;;;;5054918;28;20029;-83
2023/10/28 01:47:45;;;;;;;3.63;0.80;;;20.80;45.90;;;;;;5051617;28;20033;-81
2023/10/28 01:50:13;;;;;;;2.40;0.73;;;20.80;46.60;;;;;;5055281;28;20071;-82
2023/10/28 01:52:42;;;;;;;3.78;0.75;;;20.80;46.90;;;;;;5055005;28;20029;-80
2023/10/28 01:55:11;;;;;;;3.10;0.90;;;20.80;47.40;;;;;;5054943;28;20029;-83
2023/10/28 01:57:39;;;;;;;6.95;0.90;;;20.80;47.80;;;;;;5055564;28;20025;-78
2023/10/28 02:00:12;;;;;;;4.82;1.17;;;20.90;48.60;;;;;;5055694;28;20104;-80
2023/10/28 02:02:41;;;;;;;4.20;0.73;;;21.00;49.20;;;;;;5054116;28;20049;-81
2023/10/28 02:05:09;;;;;;;2.80;0.90;;;20.80;49.70;;;;;;5054932;28;20075;-82
2023/10/28 02:07:36;;;;;;;3.22;1.00;;;20.80;50.20;;;;;;5055431;28;20556;-77
2023/10/28 02:10:06;;;;;;;3.17;0.88;;;20.70;50.10;;;;;;5055263;28;20039;-83
2023/10/28 02:12:36;;;;;;;2.47;1.15;;;20.70;50.00;;;;;;5055267;28;20051;-82
2023/10/28 02:15:08;;;;;;;3.15;0.98;;;20.70;50.20;;;;;;5055451;28;20037;-77
2023/10/28 02:17:36;;;;;;;5.63;0.90;;;20.70;49.00;;;;;;5056297;28;20025;-77
2023/10/28 02:20:04;;;;;;;3.42;1.10;;;20.70;49.20;;;;;;5054803;28;20048;-83
2023/10/28 02:22:33;;;;;;;2.45;0.80;;;20.80;49.40;;;;;;5055495;28;20021;-86
2023/10/28 02:25:00;;;;;;;1.92;0.90;;;20.70;48.90;;;;;;5054939;28;20021;-78
2023/10/28 02:27:27;;;;;;;4.13;0.82;;;20.70;49.10;;;;;;5054857;28;20017;-77
2023/10/28 02:29:55;;;;;;;2.92;0.65;;;20.70;48.20;;;;;;5054956;28;20021;-81
2023/10/28 02:32:22;;;;;;;2.30;0.63;;;20.60;47.60;;;;;;5055185;28;20017;-83
2023/10/28 02:34:49;;;;;;;4.03;0.98;;;20.60;48.20;;;;;;5054683;28;20388;-78
2023/10/28 02:37:17;;;;;;;5.20;1.33;;;20.60;48.90;;;;;;5054601;28;20439;-84
2023/10/28 02:39:44;;;;;;;4.85;0.95;;;20.70;48.80;;;;;;5069684;28;20025;-84
2023/10/28 02:42:12;;;;;;;2.10;0.60;;;20.70;48.20;;;;;;5054386;28;20032;-83
2023/10/28 02:44:39;;;;;;;2.72;0.70;;;20.80;48.00;;;;;;5054726;28;20020;-83
2023/10/28 02:47:07;;;;;;;2.40;1.10;;;20.80;47.70;;;;;;5054527;28;20545;-85
2023/10/28 02:49:37;;;;;;;4.90;0.82;;;21.00;47.90;;;;;;5054384;28;20033;-81
2023/10/28 02:52:05;;;;;;;3.42;0.80;;;21.10;45.70;;;;;;5054388;28;20075;-84
2023/10/28 02:54:32;;;;;;;1.83;0.80;;;21.10;46.10;;;;;;5054483;28;20037;-85
2023/10/28 02:57:00;;;;;;;4.45;1.10;;;21.10;46.70;;;;;;5054305;28;20411;-84
2023/10/28 02:59:28;;;;;;;3.47;0.65;;;21.20;46.70;;;;;;5054087;28;20555;-85
2023/10/28 03:01:55;;;;;;;2.83;0.88;;;21.30;44.90;;;;;;5054320;28;20056;-84
2023/10/28 03:04:23;;;;;;;3.25;0.75;;;21.30;45.70;;;;;;5054217;28;20017;-85
2023/10/28 03:06:51;;;;;;;2.20;0.75;;;21.50;46.20;;;;;;5054159;28;20027;-85
2023/10/28 03:09:19;;;;;;;4.60;1.10;;;21.60;46.70;;;;;;5054155;28;20348;-84
2023/10/28 03:11:46;;;;;;;2.88;0.90;;;21.60;46.80;;;;;;5054171;28;20044;-85
2023/10/28 03:14:14;;;;;;;2.45;0.80;;;21.60;46.00;;;;;;5054069;28;20087;-84
2023/10/28 03:16:44;;;;;;;2.65;1.00;;;21.40;46.30;;;;;;5054109;28;20017;-85
2023/10/28 03:19:11;;;;;;;5.80;1.10;;;21.30;47.10;;;;;;5053791;28;20056;-84
2023/10/28 03:21:42;;;;;;;3.38;0.80;;;21.20;47.40;;;;;;5054093;28;20024;-84
2023/10/28 03:24:10;;;;;;;2.22;0.80;;;21.00;47.50;;;;;;5054341;28;20031;-84
2023/10/28 03:26:38;;;;;;;4.45;1.30;;;20.90;48.50;;;;;;5054235;28;20029;-86
2023/10/28 03:29:05;;;;;;;3.05;0.80;;;20.80;49.10;;;;;;5053779;28;20029;-87
2023/10/28 03:31:33;;;;;;;3.50;0.80;;;20.70;49.20;;;;;;5053751;28;20522;-85
2023/10/28 03:34:00;;;;;;;2.92;0.90;;;20.60;49.70;;;;;;5053541;28;20037;-87
2023/10/28 03:36:28;;;;;;;1.42;0.63;;;20.40;50.10;;;;;;5052987;28;20040;-85
2023/10/28 03:38:55;;;;;;;1.50;0.73;;;20.50;50.30;;;;;;5053503;28;20136;-84
2023/10/28 03:41:23;;;;;;;2.40;0.80;;;20.40;50.00;;;;;;5053396;28;20048;-86
2023/10/28 03:43:51;;;;;;;3.78;0.73;;;20.50;49.90;;;;;;5053600;28;20017;-86
2023/10/28 03:46:20;;;;;;;0.98;0.60;;;20.60;50.20;;;;;;5053579;28;20066;-83
2023/10/28 03:48:48;;;;;;;2.00;0.60;;;20.70;50.60;;;;;;5047465;28;20028;-83
2023/10/28 03:51:15;;;;;;;5.20;0.70;;;20.90;50.80;;;;;;5053316;28;20016;-86
2023/10/28 03:53:43;;;;;;;2.70;0.70;;;21.10;50.60;;;;;;5053658;28;20079;-84
2023/10/28 03:56:11;;;;;;;2.17;0.75;;;20.90;50.30;;;;;;5053366;28;20047;-83
2023/10/28 03:58:38;;;;;;;3.58;0.85;;;20.90;50.40;;;;;;5053194;28;20029;-83
2023/10/28 04:01:05;;;;;;;1.52;0.57;;;20.90;50.50;;;;;;5052944;28;20071;-83
2023/10/28 04:03:33;;;;;;;3.35;0.77;;;20.80;50.60;;;;;;5053105;28;20050;-82
2023/10/28 04:06:00;;;;;;;3.97;0.90;;;20.80;50.80;;;;;;5052974;28;20025;-84
2023/10/28 04:08:28;;;;;;;1.92;0.57;;;20.70;51.10;;;;;;5052956;28;20029;-85
2023/10/28 04:10:55;;;;;;;2.17;0.88;;;20.70;51.20;;;;;;5053250;28;20441;-82
2023/10/28 04:13:23;;;;;;;2.42;0.77;;;20.60;51.40;;;;;;5052743;28;20554;-83
2023/10/28 04:15:50;;;;;;;4.00;2.00;;;20.60;51.40;;;;;;5052722;28;20078;-78
2023/10/28 04:18:17;;;;;;;2.65;0.90;;;20.60;51.60;;;;;;5052089;28;20422;-79
2023/10/28 04:20:45;;;;;;;2.13;0.93;;;20.50;51.30;;;;;;5041531;28;20021;-81
2023/10/28 04:23:13;;;;;;;0.73;0.60;;;20.50;51.70;;;;;;5033178;28;20116;-83
2023/10/28 04:25:40;;;;;;;2.10;0.50;;;20.50;51.80;;;;;;5032733;28;20025;-81
2023/10/28 04:28:08;;;;;;;2.20;0.73;;;20.70;51.60;;;;;;5039972;28;20126;-78
2023/10/28 04:30:35;;;;;;;0.98;0.50;;;20.80;51.10;;;;;;5052078;28;20414;-77
2023/10/28 04:33:05;;;;;;;3.30;0.57;;;21.00;50.90;;;;;;5061447;28;20156;-79
2023/10/28 04:35:32;;;;;;;1.75;0.70;;;21.20;50.50;;;;;;5068432;28;20036;-84
2023/10/28 04:38:00;;;;;;;4.35;0.50;;;21.30;50.00;;;;;;5055808;28;20427;-79
2023/10/28 04:40:27;;;;;;;2.97;0.70;;;21.50;49.60;;;;;;5064103;28;20109;-77
2023/10/28 04:43:00;;;;;;;2.58;0.70;;;21.60;49.10;;;;;;5070868;28;20012;-81
2023/10/28 04:45:28;;;;;;;1.98;0.82;;;21.50;47.80;;;;;;5059924;28;20017;-80
2023/10/28 04:47:55;;;;;;;2.75;0.73;;;21.70;48.40;;;;;;5073037;28;20024;-81
2023/10/28 04:50:25;;;;;;;2.13;0.70;;;21.70;47.30;;;;;;5076854;28;20055;-81
2023/10/28 04:52:53;;;;;;;2.90;0.80;;;21.80;48.00;;;;;;5076691;28;20506;-79
2023/10/28 04:55:21;;;;;;;1.52;0.75;;;21.70;47.30;;;;;;5075197;28;20043;-78
2023/10/28 04:57:49;;;;;;;3.70;1.00;;;21.80;48.10;;;;;;5075916;28;20110;-84
2023/10/28 05:00:18;;;;;;;3.53;0.85;;;21.80;48.00;;;;;;5076703;28;20021;-85
2023/10/28 05:02:46;;;;;;;3.70;1.35;;;21.80;47.70;;;;;;5076488;28;20108;-81
2023/10/28 05:05:19;;;;;;;4.28;1.20;;;21.70;48.40;;;;;;5076515;28;20035;-77
2023/10/28 05:07:46;;;;;;;2.50;0.85;;;21.70;48.30;;;;;;5076787;28;20428;-83
2023/10/28 05:10:14;;;;;;;3.13;0.90;;;21.80;47.70;;;;;;5076863;28;20031;-77
2023/10/28 05:12:41;;;;;;;2.17;1.27;;;21.80;47.00;;;;;;5077532;28;20025;-80
2023/10/28 05:15:10;;;;;;;5.47;0.90;;;21.70;47.60;;;;;;5076547;28;20028;-83
2023/10/28 05:17:38;;;;;;;4.07;1.30;;;21.80;47.90;;;;;;5077005;28;20027;-81
2023/10/28 05:20:09;;;;;;;3.17;2.00;;;21.80;48.20;;;;;;5077087;28;20024;-81
2023/10/28 05:22:41;;;;;;;6.00;2.47;;;21.80;48.50;;;;;;5076596;28;20017;-77
2023/10/28 05:25:09;;;;;;;5.00;2.50;;;21.80;49.00;;;;;;5076788;28;20028;-77
2023/10/28 05:27:36;;;;;;;4.20;2.10;;;21.80;48.90;;;;;;5076803;28;20036;-83
2023/10/28 05:30:04;;;;;;;3.40;2.00;;;21.90;48.80;;;;;;5076579;28;20085;-80
2023/10/28 05:32:32;;;;;;;4.32;2.08;;;21.80;49.30;;;;;;5076255;28;20115;-77
2023/10/28 05:34:59;;;;;;;2.40;1.00;;;21.90;50.20;;;;;;5075958;28;20496;-82
2023/10/28 05:37:27;;;;;;;4.18;2.78;;;21.80;50.50;;;;;;5075592;28;20025;-81
2023/10/28 05:39:56;;;;;;;2.97;1.73;;;21.80;50.50;;;;;;5075640;28;20036;-77
2023/10/28 05:42:23;;;;;;;3.75;2.38;;;21.60;50.50;;;;;;5075789;28;20037;-82
2023/10/28 05:44:51;;;;;;;4.00;2.25;;;21.60;50.60;;;;;;5075761;28;20028;-79
2023/10/28 05:47:18;;;;;;;3.17;1.45;;;21.50;50.80;;;;;;5075735;28;20056;-82
2023/10/28 05:49:49;;;;;;;6.75;2.22;;;21.40;51.20;;;;;;5075440;28;20383;-78
2023/10/28 05:52:20;;;;;;;4.03;2.72;;;21.40;51.70;;;;;;5069471;28;20115;-81
2023/10/28 05:54:48;;;;;;;2.30;0.88;;;21.50;51.80;;;;;;5055548;28;20037;-79
2023/10/28 05:57:15;;;;;;;2.05;1.40;;;21.50;51.30;;;;;;5055345;28;20025;-79
2023/10/28 05:59:43;;;;;;;2.42;1.98;;;21.50;51.30;;;;;;5054666;28;20029;-79
2023/10/28 06:02:10;;;;;;;2.90;1.02;;;21.50;51.00;;;;;;5055414;28;20044;-77
2023/10/28 06:04:38;;;;;;;2.95;1.70;;;21.50;50.90;;;;;;5055264;28;20056;-80
2023/10/28 06:07:07;;;;;;;5.20;1.85;;;21.40;50.50;;;;;;5055167;28;20108;-80
2023/10/28 06:09:37;;;;;;;2.95;1.00;;;21.40;50.60;;;;;;5055319;28;20067;-82
2023/10/28 06:12:05;;;;;;;2.17;1.30;;;21.30;50.50;;;;;;5055296;28;20025;-81
2023/10/28 06:14:35;;;;;;;4.10;0.93;;;21.20;50.90;;;;;;5055200;28;20036;-81
2023/10/28 06:17:02;;;;;;;2.20;1.45;;;21.10;50.80;;;;;;5055000;28;20082;-81
2023/10/28 06:19:30;;;;;;;2.42;1.50;;;21.10;51.10;;;;;;5055100;28;20027;-84
2023/10/28 06:21:57;;;;;;;2.33;1.00;;;21.10;51.20;;;;;;5054258;28;20045;-81
2023/10/28 06:24:24;;;;;;;1.77;1.10;;;21.10;51.00;;;;;;5055132;28;20024;-82
2023/10/28 06:26:52;;;;;;;2.38;1.13;;;21.20;51.40;;;;;;5055176;28;20095;-83
2023/10/28 06:29:20;;;;;;;1.88;0.90;;;21.20;50.90;;;;;;5054780;28;20504;-79
2023/10/28 06:31:48;;;;;;;2.25;1.25;;;21.30;50.90;;;;;;5055202;28;20029;-78
2023/10/28 06:34:16;;;;;;;3.38;1.30;;;21.30;51.20;;;;;;5053588;28;20036;-83
2023/10/28 06:36:46;;;;;;;4.78;0.95;;;21.30;51.30;;;;;;5054850;28;20036;-83
2023/10/28 06:39:16;;;;;;;2.03;1.20;;;21.30;51.30;;;;;;5054810;28;20067;-84
2023/10/28 06:41:46;;;;;;;1.67;1.00;;;21.40;51.20;;;;;;5054759;28;20084;-84
2023/10/28 06:44:13;;;;;;;2.97;1.35;;;21.40;50.40;;;;;;5054982;28;20029;-83
2023/10/28 06:46:41;;;;;;;5.35;1.33;;;21.50;50.10;;;;;;5055170;28;20044;-84
2023/10/28 06:49:09;;;;;;;2.70;1.02;;;21.50;49.70;;;;;;5055060;28;20464;-83
2023/10/28 06:51:36;;;;;;;2.78;1.50;;;21.40;49.40;;;;;;5054960;28;20025;-85
2023/10/28 06:54:04;;;;;;;2.08;0.68;;;21.40;50.00;;;;;;5056746;28;20025;-81
2023/10/28 06:56:31;;;;;;;3.67;1.10;;;21.50;49.50;;;;;;5062395;28;20024;-80
2023/10/28 06:58:59;;;;;;;3.95;1.38;;;21.50;48.90;;;;;;5065225;28;20021;-83
2023/10/28 07:01:26;;;;;;;4.47;1.20;;;21.60;49.80;;;;;;5065679;28;20035;-85
2023/10/28 07:03:54;;;;;;;3.10;0.90;;;21.70;49.10;;;;;;5058213;28;20031;-80
2023/10/28 07:06:21;;;;;;;2.97;0.90;;;21.50;47.90;;;;;;5056182;28;20021;-87
2023/10/28 07:08:49;;;;;;;2.67;1.27;;;21.40;48.40;;;;;;5055308;28;20096;-85
2023/10/28 07:11:16;;;;;;;7.97;1.90;;;21.30;49.10;;;;;;5055011;28;20082;-86
2023/10/28 07:13:45;;;;;;;3.88;2.30;;;21.20;49.40;;;;;;5055360;28;20487;-86
2023/10/28 07:16:12;;;;;;;2.80;1.73;;;21.10;49.20;;;;;;5054922;28;20044;-86
2023/10/28 07:18:40;;;;;;;3.22;1.20;;;20.90;48.90;;;;;;5054808;28;20021;-85
2023/10/28 07:21:09;;;;;;;3.03;1.10;;;20.80;48.90;;;;;;5054723;28;20056;-86
2023/10/28 07:23:36;;;;;;;4.55;1.23;;;20.70;49.50;;;;;;5054297;28;20146;-86
2023/10/28 07:26:04;;;;;;;2.72;1.40;;;20.50;49.50;;;;;;5054667;28;20120;-85
2023/10/28 07:28:34;;;;;;;2.75;1.10;;;20.40;50.20;;;;;;5054364;28;20106;-79
2023/10/28 07:31:02;;;;;;;1.92;1.20;;;20.30;49.90;;;;;;5053957;28;20533;-83
2023/10/28 07:33:31;;;;;;;2.67;1.40;;;20.20;50.20;;;;;;5053923;28;20021;-78
2023/10/28 07:36:02;;;;;;;1.55;1.10;;;20.10;51.00;;;;;;5053916;28;20629;-79
2023/10/28 07:38:29;;;;;;;3.92;1.45;;;20.00;50.50;;;;;;5053759;28;20594;-81
2023/10/28 07:40:57;;;;;;;4.07;1.30;;;19.90;50.70;;;;;;5053551;28;20044;-82
2023/10/28 07:43:26;;;;;;;3.78;1.48;;;19.80;50.20;;;;;;5041501;28;20032;-81
2023/10/28 07:45:56;;;;;;;3.45;1.40;;;19.70;50.00;;;;;;5033876;28;20026;-83
2023/10/28 07:48:26;;;;;;;2.80;1.30;;;19.70;50.70;;;;;;5033577;28;20071;-79
2023/10/28 07:50:53;;;;;;;3.72;1.40;;;19.60;50.70;;;;;;5034027;28;20063;-81
2023/10/28 07:53:20;;;;;;;2.47;1.40;;;19.50;51.40;;;;;;5047010;28;20021;-81
2023/10/28 07:55:48;;;;;;;3.92;1.25;;;19.50;51.40;;;;;;5053721;28;20055;-85
2023/10/28 07:58:16;;;;;;;2.55;1.13;;;19.40;51.60;;;;;;5053392;28;20035;-80
2023/10/28 08:00:44;;;;;;;2.67;1.25;;;19.30;51.80;;;;;;5054810;28;20047;-79
2023/10/28 08:03:12;;;;;;;2.75;1.00;;;19.30;52.20;;;;;;5053612;28;20101;-81
2023/10/28 08:05:39;;;;;;;3.50;1.20;;;19.30;52.50;;;;;;5053762;28;20037;-79
2023/10/28 08:08:09;;;;;;;5.00;1.52;;;19.20;52.60;;;;;;5042329;28;20030;-78
2023/10/28 08:10:42;;;;;;;2.55;0.98;;;19.20;52.80;;;;;;5033526;28;20396;-78
2023/10/28 08:13:12;;;;;;;4.80;1.15;;;19.20;53.20;;;;;;5033241;28;20075;-78
2023/10/28 08:15:39;;;;;;;3.47;1.20;;;19.10;53.20;;;;;;5034246;28;20120;-80
2023/10/28 08:18:07;;;;;;;3.10;1.67;;;19.10;53.10;;;;;;5044692;28;20025;-80
2023/10/28 08:20:34;;;;;;;2.72;1.10;;;19.10;53.80;;;;;;5032973;28;20049;-78
2023/10/28 08:23:01;;;;;;;2.28;1.17;;;19.00;53.80;;;;;;5049819;28;20105;-79
2023/10/28 08:25:29;;;;;;;6.00;1.52;;;19.00;53.90;;;;;;5051815;28;20029;-84
2023/10/28 08:27:56;;;;;;;3.55;1.10;;;19.00;53.50;;;;;;5052985;28;20115;-81
2023/10/28 08:30:24;;;;;;;4.63;1.30;;;18.90;53.80;;;;;;5049932;28;20067;-82
2023/10/28 08:32:51;;;;;;;3.33;1.30;;;18.80;53.80;;;;;;5051236;28;20472;-83
2023/10/28 08:35:19;;;;;;;3.22;1.10;;;18.80;54.10;;;;;;5053033;28;20476;-83
2023/10/28 08:37:51;;;;;;;3.38;1.30;;;18.70;54.10;;;;;;5053597;28;20096;-81
2023/10/28 08:40:18;;;;;;;2.60;1.05;;;18.70;54.30;;;;;;5051717;28;20040;-79
2023/10/28 08:42:46;;;;;;;4.10;1.00;;;18.70;54.50;;;;;;5052624;28;20025;-78
2023/10/28 08:45:18;;;;;;;3.40;0.80;;;18.70;55.10;;;;;;5053132;28;20024;-82
2023/10/28 08:47:46;;;;;;;2.97;1.00;;;18.60;54.90;;;;;;5052946;28;20025;-83
2023/10/28 08:50:17;;;;;;;1.00;0.70;;;18.60;55.50;;;;;;5052902;28;20021;-79
2023/10/28 08:52:48;;;;;;;4.78;1.25;;;18.60;55.80;;;;;;5052841;28;20032;-80
2023/10/28 08:55:15;;;;;;;4.13;1.50;;;18.60;56.40;;;;;;5052699;28;20044;-82
2023/10/28 08:57:46;;;;;;;3.85;1.00;;;18.50;56.60;;;;;;5052776;28;20032;-86
2023/10/28 09:00:14;;;;;;;6.97;1.40;;;18.50;57.10;;;;;;5053087;28;20068;-81
2023/10/28 09:02:51;;;;;;;4.95;1.52;;;18.50;57.50;;;;;;5052812;28;20028;-81
2023/10/28 09:05:22;;;;;;;2.65;1.30;;;18.50;57.60;;;;;;5052500;28;20047;-80
2023/10/28 09:07:49;;;;;;;5.35;1.85;;;18.40;58.20;;;;;;5053026;28;20025;-80
2023/10/28 09:10:17;;;;;;;4.10;1.30;;;18.40;58.50;;;;;;5052909;28;20112;-86
2023/10/28 09:12:44;;;;;;;2.35;1.15;;;18.30;58.60;;;;;;5052803;28;20044;-86
2023/10/28 09:15:13;;;;;;;2.35;1.00;;;18.30;58.90;;;;;;5052753;28;20037;-83
2023/10/28 09:17:40;;;;;;;3.78;1.08;;;18.30;58.90;;;;;;5053030;28;20028;-85
2023/10/28 09:20:11;;;;;;;3.33;1.10;;;18.30;59.00;;;;;;5053642;28;20020;-83
2023/10/28 09:22:42;;;;;;;4.88;1.42;;;18.20;59.30;;;;;;5052975;28;20021;-85
2023/10/28 09:25:11;;;;;;;4.63;0.98;;;18.20;59.60;;;;;;5052332;28;20029;-82
2023/10/28 09:27:39;;;;;;;6.53;1.13;;;18.30;59.80;;;;;;5052674;28;20349;-83
2023/10/28 09:30:07;;;;;;;3.35;0.90;;;18.20;59.90;;;;;;5052485;28;20506;-79
2023/10/28 09:32:35;;;;;;;1.83;1.02;;;18.30;60.20;;;;;;5052256;28;20033;-81
2023/10/28 09:35:07;;;;;;;4.15;0.93;;;18.20;60.50;;;;;;5052947;28;20047;-80
2023/10/28 09:37:39;;;;;;;3.53;0.95;;;18.20;61.00;;;;;;5056306;28;20059;-81
2023/10/28 09:40:18;;;;;;;2.72;1.10;;;18.20;60.90;;;;;;5055971;28;20059;-79
2023/10/28 09:42:49;;;;;;;1.83;0.80;;;18.20;60.90;;;;;;5053676;28;20096;-83
2023/10/28 09:45:16;;;;;;;4.28;1.23;;;18.20;61.60;;;;;;5053464;28;20051;-84
2023/10/28 09:47:57;;;;;;;2.50;0.90;;;18.20;61.50;;;;;;5056432;28;20025;-81
2023/10/28 09:50:25;;;;;;;2.42;0.80;;;18.10;61.80;;;;;;5056405;28;20551;-80
2023/10/28 09:53:02;;;;;;;3.08;1.02;;;18.10;62.20;;;;;;5056008;28;20475;-84
2023/10/28 09:55:37;;;;;;;2.67;0.90;;;18.00;62.20;;;;;;5055827;28;20045;-81
2023/10/28 09:58:16;;;;;;;2.83;0.80;;;18.00;62.20;;;;;;5055881;28;20022;-81
2023/10/28 10:00:46;;;;;;;3.47;1.05;;;18.00;62.40;;;;;;5056268;28;20021;-80
2023/10/28 10:03:37;;;;;;;2.72;0.90;;;18.00;62.50;;;;;;5055442;28;20029;-84
2023/10/28 10:06:08;;;;;;;1.20;0.73;;;18.00;62.50;;;;;;5055422;28;20494;-83
2023/10/28 10:08:36;;;;;;;3.72;1.05;;;18.00;62.20;;;;;;5055630;28;20468;-83
2023/10/28 10:11:07;;;;;;;3.55;0.77;;;18.00;62.20;;;;;;5055416;28;20500;-79
2023/10/28 10:13:44;;;;;;;3.70;1.20;;;17.90;62.20;;;;;;5055468;28;20030;-86
2023/10/28 10:16:39;;;;;;;3.63;1.30;;;17.90;62.20;;;;;;5055590;28;20066;-82
2023/10/28 10:19:12;;;;;;;3.15;1.30;;;17.90;62.30;;;;;;5054980;28;20029;-84
2023/10/28 10:21:47;;;;;;;5.95;1.30;;;17.90;62.30;;;;;;5055445;28;20106;-86
2023/10/28 10:24:17;;;;;;;4.78;1.30;;;17.80;62.20;;;;;;5055523;28;20083;-83
2023/10/28 10:26:55;;;;;;;3.88;1.27;;;17.90;62.20;;;;;;5055424;28;20112;-84
2023/10/28 10:29:25;;;;;;;3.55;1.20;;;17.90;62.00;;;;;;5055756;28;20463;-86
2023/10/28 10:31:55;;;;;;;2.55;1.48;;;17.90;61.70;;;;;;5055858;28;20049;-87
2023/10/28 10:34:34;;;;;;;4.20;1.35;;;17.90;61.50;;;;;;5054321;28;20025;-86
2023/10/28 10:37:01;;;;;;;3.70;1.52;;;17.90;61.70;;;;;;5055113;28;20124;-80
2023/10/28 10:39:29;;;;;;;3.70;1.10;;;17.80;61.50;;;;;;5054325;28;20032;-78
2023/10/28 10:41:59;;;;;;;3.35;1.15;;;17.80;61.70;;;;;;5054740;28;20055;-83
2023/10/28 10:44:34;;;;;;;3.42;0.85;;;17.80;61.00;;;;;;5055437;28;20053;-83
2023/10/28 10:47:08;;;;;;;2.47;1.00;;;17.80;61.10;;;;;;5054783;28;20025;-82
2023/10/28 10:49:38;;;;;;;3.92;1.63;;;17.80;61.00;;;;;;5055050;28;20024;-84
2023/10/28 10:52:08;;;;;;;2.80;1.10;;;17.90;60.90;;;;;;5055321;28;20087;-84
2023/10/28 10:54:38;;;;;;;7.93;1.30;;;17.80;61.00;;;;;;5054651;28;20083;-83
2023/10/28 10:57:10;;;;;;;6.97;1.48;;;17.80;61.20;;;;;;5054207;28;20107;-81
2023/10/28 10:59:38;;;;;;;2.55;0.98;;;17.80;61.30;;;;;;5054566;28;20029;-80
2023/10/28 11:02:06;;;;;;;4.65;1.33;;;17.70;61.40;;;;;;5054202;28;20029;-83
2023/10/28 11:04:36;;;;;;;2.92;1.27;;;17.70;61.40;;;;;;5054118;28;20036;-79
2023/10/28 11:07:04;;;;;;;3.50;1.15;;;17.70;61.40;;;;;;5054276;28;20078;-78
2023/10/28 11:09:35;;;;;;;6.00;1.50;;;17.70;61.40;;;;;;5054279;28;20108;-83
2023/10/28 11:12:03;;;;;;;3.83;1.58;;;17.70;61.40;;;;;;5054265;28;20017;-80
2023/10/28 11:14:30;;;;;;;3.30;1.20;;;17.70;61.40;;;;;;5054149;28;20471;-79
2023/10/28 11:16:57;;;;;;;4.78;1.13;;;17.70;61.40;;;;;;5053953;28;20024;-78
2023/10/28 11:19:25;;;;;;;3.83;1.35;;;17.70;61.30;;;;;;5053937;28;20107;-78
2023/10/28 11:21:54;;;;;;;2.60;1.00;;;17.70;61.10;;;;;;5053993;28;20021;-79
2023/10/28 11:24:24;;;;;;;2.63;0.85;;;17.70;60.90;;;;;;5053877;28;20065;-77
2023/10/28 11:26:51;;;;;;;4.63;0.80;;;17.70;61.00;;;;;;5053926;28;20021;-78
2023/10/28 11:29:18;;;;;;;3.20;0.98;;;17.70;61.10;;;;;;5053473;28;20047;-78
2023/10/28 11:31:47;;;;;;;4.35;0.77;;;17.70;61.10;;;;;;5053587;28;20024;-77
2023/10/28 11:34:15;;;;;;;5.00;1.00;;;17.70;61.20;;;;;;5053634;28;20309;-77
2023/10/28 11:36:42;;;;;;;3.95;0.75;;;17.70;61.20;;;;;;5053598;28;20104;-77
2023/10/28 11:39:13;;;;;;;3.03;1.05;;;17.70;61.10;;;;;;5053385;28;20068;-77
2023/10/28 11:41:47;;;;;;;5.93;1.20;;;17.60;61.30;;;;;;5053394;28;20045;-78
2023/10/28 11:44:14;;;;;;;2.47;1.13;;;17.70;61.30;;;;;;5045483;28;20029;-77
2023/10/28 11:46:41;;;;;;;2.05;0.70;;;17.70;61.30;;;;;;5035089;28;20044;-82
2023/10/28 11:49:09;;;;;;;5.82;1.08;;;17.70;61.40;;;;;;5067437;28;20154;-77
2023/10/28 11:51:36;;;;;;;2.83;1.10;;;17.60;61.60;;;;;;5056303;28;20029;-78
2023/10/28 11:54:04;;;;;;;4.90;1.27;;;17.60;61.70;;;;;;5053232;28;20036;-77
2023/10/28 11:56:34;;;;;;;5.75;1.38;;;17.60;61.90;;;;;;5053205;28;20483;-78
2023/10/28 11:59:01;;;;;;;7.10;1.00;;;17.50;62.00;;;;;;5052571;28;20025;-78
2023/10/28 12:01:31;;;;;;;3.08;0.93;;;17.50;62.20;;;;;;5051630;28;20094;-78
2023/10/28 12:03:59;;;;;;;2.80;0.70;;;17.50;62.30;;;;;;5053196;28;20031;-77
2023/10/28 12:06:26;;;;;;;2.15;1.08;;;17.50;62.40;;;;;;5053159;28;20028;-78
2023/10/28 12:08:57;;;;;;;2.00;0.95;;;17.40;62.50;;;;;;5047386;28;20029;-77
2023/10/28 12:11:25;;;;;;;5.18;1.30;;;17.40;62.60;;;;;;5052788;28;20353;-77
2023/10/28 12:13:52;;;;;;;6.43;1.27;;;17.30;62.90;;;;;;5052800;28;20033;-77
2023/10/28 12:16:20;;;;;;;4.15;1.10;;;17.30;63.00;;;;;;5052621;28;20028;-77
2023/10/28 12:18:47;;;;;;;4.05;0.90;;;17.30;63.10;;;;;;5053059;28;20056;-77
2023/10/28 12:21:17;;;;;;;5.53;1.35;;;17.30;63.30;;;;;;5052579;28;20494;-77
2023/10/28 12:23:45;;;;;;;5.53;1.45;;;17.30;63.40;;;;;;5052720;28;20128;-78
2023/10/28 12:26:13;;;;;;;6.05;1.50;;;17.20;63.50;;;;;;5052848;28;20031;-77
2023/10/28 12:28:41;;;;;;;2.13;1.00;;;17.20;63.60;;;;;;5052819;28;20049;-76
2023/10/28 12:31:08;;;;;;;4.03;1.40;;;17.20;63.90;;;;;;5052514;28;20029;-78
2023/10/28 12:33:36;;;;;;;3.47;1.15;;;17.20;64.00;;;;;;5052640;28;20021;-78
2023/10/28 12:36:03;;;;;;;3.03;1.30;;;17.20;64.00;;;;;;5068102;28;20032;-77
2023/10/28 12:38:30;;;;;;;4.75;1.60;;;17.10;64.20;;;;;;5052691;28;20552;-77
2023/10/28 12:40:58;;;;;;;5.47;1.58;;;17.00;64.40;;;;;;5052454;28;20566;-78
2023/10/28 12:43:27;;;;;;;7.13;2.15;;;17.00;64.60;;;;;;5052487;28;20024;-77
2023/10/28 12:45:54;;;;;;;5.25;1.40;;;17.00;64.60;;;;;;5052509;28;20021;-76
2023/10/28 12:48:22;;;;;;;3.70;1.33;;;16.90;64.70;;;;;;5052583;28;20025;-77
2023/10/28 12:50:49;;;;;;;2.97;1.38;;;16.90;65.00;;;;;;5052435;28;20495;-77
2023/10/28 12:53:17;;;;;;;6.18;1.70;;;16.90;64.90;;;;;;5052471;28;20059;-78
2023/10/28 12:55:44;;;;;;;3.75;1.48;;;16.90;65.00;;;;;;5052431;28;20065;-77